Time;durP1;ratioP1;P1;durP2;ratioP2;P2;SDS_P1;SDS_P2;PMS_P1;PMS_P2;Temp;Humidity;BMP_temperature;BMP_pressure;BME280_temperature;BME280_humidity;BME280_pressure;Samples;Min_cycle;Max_cycle;Signal;HPM_P1;HPM_P2
2022/05/18 00:01:45;;;;;;;4.30;3.10;;;;;;;;;;5022158;28;20040;-80
2022/05/18 00:04:11;;;;;;;4.95;2.90;;;;;;;;;;5025373;28;20033;-80
2022/05/18 00:06:36;;;;;;;4.50;2.88;;;;;;;;;;5002077;28;20041;-80
2022/05/18 00:09:02;;;;;;;4.57;3.17;;;;;;;;;;5018432;28;20064;-80
2022/05/18 00:11:27;;;;;;;5.13;3.42;;;;;;;;;;5001659;28;20410;-80
2022/05/18 00:13:54;;;;;;;5.35;3.25;;;;;;;;;;5018196;28;20104;-80
2022/05/18 00:16:22;;;;;;;4.43;2.85;;;;;;;;;;4998409;28;20121;-80
2022/05/18 00:18:47;;;;;;;3.75;2.50;;;;;;;;;;5007175;28;20033;-81
2022/05/18 00:21:13;;;;;;;5.60;3.53;;;;;;;;;;5018162;28;20548;-81
2022/05/18 00:23:38;;;;;;;3.55;2.58;;;;;;;;;;5002061;28;20624;-81
2022/05/18 00:26:04;;;;;;;5.13;3.08;;;;;;;;;;5018090;28;20402;-81
2022/05/18 00:28:30;;;;;;;4.68;2.92;;;;;;;;;;5017760;28;20419;-81
2022/05/18 00:30:56;;;;;;;4.65;3.22;;;;;;;;;;5018471;28;20040;-81
2022/05/18 00:33:22;;;;;;;4.47;2.90;;;;;;;;;;5018530;28;20040;-80
2022/05/18 00:35:47;;;;;;;3.70;2.80;;;;;;;;;;5001734;28;20048;-81
2022/05/18 00:38:13;;;;;;;4.88;3.05;;;;;;;;;;5001737;28;20052;-80
2022/05/18 00:40:40;;;;;;;4.70;2.90;;;;;;;;;;5017740;28;20045;-80
2022/05/18 00:43:05;;;;;;;4.43;2.75;;;;;;;;;;5001403;28;20086;-81
2022/05/18 00:45:31;;;;;;;4.20;2.78;;;;;;;;;;5034055;28;20041;-80
2022/05/18 00:47:56;;;;;;;4.70;2.83;;;;;;;;;;4997733;28;20025;-80
2022/05/18 00:50:28;;;;;;;3.72;2.83;;;;;;;;;;5029336;28;20045;-80
2022/05/18 00:53:14;;;;;;;;;;;;;;;;;;5018501;28;20060;-80
2022/05/18 00:55:42;;;;;;;3.80;2.53;;;;;;;;;;5036535;28;19916;-80
2022/05/18 00:58:18;;;;;;;4.93;2.75;;;;;;;;;;5009538;28;20049;-80
2022/05/18 01:00:44;;;;;;;4.18;2.60;;;;;;;;;;5034412;28;20407;-80
2022/05/18 01:03:23;;;;;;;2.83;2.10;;;;;;;;;;5017236;28;20072;-80
2022/05/18 01:05:52;;;;;;;3.83;2.55;;;;;;;;;;5017711;28;20036;-80
2022/05/18 01:08:24;;;;;;;3.35;2.50;;;;;;;;;;5001615;28;20442;-80
2022/05/18 01:10:49;;;;;;;4.13;2.45;;;;;;;;;;5001312;28;20507;-81
2022/05/18 01:13:14;;;;;;;4.88;2.47;;;;;;;;;;5017209;28;20044;-81
2022/05/18 01:15:40;;;;;;;4.07;2.20;;;;;;;;;;5000869;28;20025;-80
2022/05/18 01:18:08;;;;;;;4.20;2.22;;;;;;;;;;5017237;28;20049;-81
2022/05/18 01:20:36;;;;;;;4.47;2.70;;;;;;;;;;5001005;28;20055;-80
2022/05/18 01:23:30;;;;;;;3.55;2.53;;;;;;;;;;5001597;28;20064;-80
2022/05/18 01:26:07;;;;;;;4.97;2.80;;;;;;;;;;5034202;28;20037;-80
2022/05/18 01:28:37;;;;;;;3.83;2.38;;;;;;;;;;5033923;28;20033;-80
2022/05/18 01:31:04;;;;;;;4.45;2.40;;;;;;;;;;5001251;28;20029;-80
2022/05/18 01:33:35;;;;;;;3.63;2.40;;;;;;;;;;5000918;28;20137;-80
2022/05/18 01:36:02;;;;;;;3.40;2.53;;;;;;;;;;5001695;28;20033;-80
2022/05/18 01:38:30;;;;;;;3.95;2.40;;;;;;;;;;5000240;28;20048;-81
2022/05/18 01:40:58;;;;;;;3.47;2.50;;;;;;;;;;5016863;28;20037;-81
2022/05/18 01:43:46;;;;;;;5.28;2.15;;;;;;;;;;5033245;28;20041;-80
2022/05/18 01:46:13;;;;;;;4.32;3.13;;;;;;;;;;5017057;28;20547;-80
2022/05/18 01:48:40;;;;;;;3.92;3.08;;;;;;;;;;5006436;28;20411;-80
2022/05/18 01:51:06;;;;;;;3.63;2.70;;;;;;;;;;4997661;28;20037;-80
2022/05/18 01:53:32;;;;;;;3.72;2.47;;;;;;;;;;4997637;28;20034;-80
2022/05/18 01:55:58;;;;;;;3.42;2.33;;;;;;;;;;5021629;28;20153;-80
2022/05/18 01:58:23;;;;;;;3.47;2.63;;;;;;;;;;5020104;28;20062;-81
2022/05/18 02:00:49;;;;;;;4.75;2.75;;;;;;;;;;5020033;28;20449;-81
2022/05/18 02:03:14;;;;;;;5.57;2.92;;;;;;;;;;5036820;28;20734;-80
2022/05/18 02:05:40;;;;;;;3.65;2.63;;;;;;;;;;5020303;28;20032;-80
2022/05/18 02:08:06;;;;;;;4.55;2.63;;;;;;;;;;5020361;28;20561;-80
2022/05/18 02:10:32;;;;;;;3.95;2.30;;;;;;;;;;5020104;28;20090;-80
2022/05/18 02:12:57;;;;;;;3.80;2.67;;;;;;;;;;5020336;28;20510;-80
2022/05/18 02:15:23;;;;;;;4.95;2.63;;;;;;;;;;5019529;28;20398;-80
2022/05/18 02:17:50;;;;;;;5.28;2.55;;;;;;;;;;5016711;28;20495;-81
2022/05/18 02:20:15;;;;;;;2.72;2.00;;;;;;;;;;5004532;28;20030;-80
2022/05/18 02:22:40;;;;;;;4.60;2.50;;;;;;;;;;5017293;28;20033;-80
2022/05/18 02:25:06;;;;;;;4.43;2.17;;;;;;;;;;5017038;28;20381;-80
2022/05/18 02:27:32;;;;;;;3.42;2.65;;;;;;;;;;5016558;28;20079;-80
2022/05/18 02:29:57;;;;;;;3.22;2.40;;;;;;;;;;5016940;28;20123;-79
2022/05/18 02:32:23;;;;;;;3.13;2.35;;;;;;;;;;4987213;28;20439;-80
2022/05/18 02:34:48;;;;;;;3.80;2.63;;;;;;;;;;4982041;28;20506;-80
2022/05/18 02:37:14;;;;;;;3.25;2.00;;;;;;;;;;5000460;28;20424;-80
2022/05/18 02:39:40;;;;;;;3.95;2.05;;;;;;;;;;4989269;28;20056;-80
2022/05/18 02:42:06;;;;;;;3.15;1.90;;;;;;;;;;5019967;28;20061;-80
2022/05/18 02:44:32;;;;;;;4.68;2.70;;;;;;;;;;5036466;28;20087;-80
2022/05/18 02:46:59;;;;;;;2.92;1.95;;;;;;;;;;5019808;28;20033;-80
2022/05/18 02:49:25;;;;;;;3.35;2.20;;;;;;;;;;5019873;28;20052;-80
2022/05/18 02:51:53;;;;;;;3.03;2.08;;;;;;;;;;5016813;28;20057;-80
2022/05/18 02:57:03;;;;;;;4.18;2.50;;;;;;;;;;5029783;28;20025;-80
2022/05/18 02:59:29;;;;;;;3.85;2.10;;;;;;;;;;4999950;28;20041;-80
2022/05/18 03:01:54;;;;;;;3.80;2.40;;;;;;;;;;5019806;28;20430;-80
2022/05/18 03:04:20;;;;;;;3.55;2.15;;;;;;;;;;5003370;28;20060;-80
2022/05/18 03:06:45;;;;;;;3.83;2.10;;;;;;;;;;4987348;28;20032;-80
2022/05/18 03:09:11;;;;;;;2.92;2.03;;;;;;;;;;5019473;28;20090;-80
2022/05/18 03:11:36;;;;;;;3.75;2.20;;;;;;;;;;5019771;28;20110;-80
2022/05/18 03:14:02;;;;;;;3.00;2.33;;;;;;;;;;5019433;28;20108;-80
2022/05/18 03:16:27;;;;;;;3.30;2.13;;;;;;;;;;4999717;28;20029;-80
2022/05/18 03:18:53;;;;;;;3.33;2.38;;;;;;;;;;4983853;28;20030;-80
2022/05/18 03:24:03;;;;;;;2.97;2.22;;;;;;;;;;5024274;28;20121;-80
2022/05/18 03:26:28;;;;;;;4.20;2.08;;;;;;;;;;5002641;28;20059;-80
2022/05/18 03:28:55;;;;;;;3.63;2.38;;;;;;;;;;5035251;28;20068;-80
2022/05/18 03:31:21;;;;;;;2.47;2.10;;;;;;;;;;5019644;28;20067;-81
2022/05/18 03:33:46;;;;;;;3.00;2.08;;;;;;;;;;5019365;28;20032;-80
2022/05/18 03:36:13;;;;;;;2.92;1.77;;;;;;;;;;5002603;28;20037;-80
2022/05/18 03:38:39;;;;;;;3.53;2.35;;;;;;;;;;5003030;28;20569;-80
2022/05/18 03:41:04;;;;;;;3.63;1.92;;;;;;;;;;5002074;28;20519;-80
2022/05/18 03:43:30;;;;;;;4.03;1.92;;;;;;;;;;4998461;28;20052;-80
2022/05/18 03:45:56;;;;;;;2.88;1.80;;;;;;;;;;5015118;28;20091;-80
2022/05/18 03:48:21;;;;;;;3.15;1.98;;;;;;;;;;4998628;28;20033;-81
2022/05/18 03:50:48;;;;;;;2.85;2.22;;;;;;;;;;5009299;28;20036;-81
2022/05/18 03:53:13;;;;;;;2.22;1.48;;;;;;;;;;5002359;28;20063;-80
2022/05/18 03:55:40;;;;;;;3.35;1.85;;;;;;;;;;5028370;28;20203;-81
2022/05/18 03:58:06;;;;;;;3.92;2.25;;;;;;;;;;5001580;28;20060;-81
2022/05/18 04:00:32;;;;;;;3.15;1.67;;;;;;;;;;5035183;28;20519;-80
2022/05/18 04:02:57;;;;;;;3.47;1.90;;;;;;;;;;5018450;28;20115;-80
2022/05/18 04:05:23;;;;;;;2.95;2.20;;;;;;;;;;5035272;28;20040;-80
2022/05/18 04:07:49;;;;;;;2.78;1.83;;;;;;;;;;5018224;28;20394;-80
2022/05/18 04:10:14;;;;;;;2.78;1.60;;;;;;;;;;5018257;28;20041;-80
2022/05/18 04:12:40;;;;;;;3.08;1.60;;;;;;;;;;5034869;28;20041;-80
2022/05/18 04:15:06;;;;;;;3.50;2.38;;;;;;;;;;5018130;28;20048;-81
2022/05/18 04:17:31;;;;;;;2.80;1.75;;;;;;;;;;5018335;28;20029;-80
2022/05/18 04:19:57;;;;;;;2.13;1.50;;;;;;;;;;5034713;28;20453;-80
2022/05/18 04:22:25;;;;;;;2.80;1.60;;;;;;;;;;5001804;28;20036;-80
2022/05/18 04:24:51;;;;;;;3.80;1.88;;;;;;;;;;5019297;28;20033;-80
2022/05/18 04:27:17;;;;;;;3.20;2.00;;;;;;;;;;5001433;28;20068;-80
2022/05/18 04:29:43;;;;;;;3.20;1.85;;;;;;;;;;5002023;28;20118;-81
2022/05/18 04:32:08;;;;;;;3.58;2.67;;;;;;;;;;5018550;28;20407;-80
2022/05/18 04:34:34;;;;;;;2.60;1.70;;;;;;;;;;5001996;28;20044;-81
2022/05/18 04:36:59;;;;;;;3.28;1.83;;;;;;;;;;5017941;28;20094;-80
2022/05/18 04:39:26;;;;;;;2.83;1.50;;;;;;;;;;5017890;28;20545;-80
2022/05/18 04:41:51;;;;;;;3.95;2.00;;;;;;;;;;5033871;28;20061;-80
2022/05/18 04:44:17;;;;;;;4.13;2.08;;;;;;;;;;5017940;28;20036;-80
2022/05/18 04:46:42;;;;;;;3.28;1.95;;;;;;;;;;5017682;28;20048;-80
2022/05/18 04:49:10;;;;;;;2.95;1.75;;;;;;;;;;5017595;28;20123;-80
2022/05/18 04:51:36;;;;;;;3.47;2.30;;;;;;;;;;5034304;28;20037;-81
2022/05/18 04:54:01;;;;;;;2.78;1.80;;;;;;;;;;5017678;28;20052;-81
2022/05/18 04:56:26;;;;;;;2.67;1.80;;;;;;;;;;5050176;28;20402;-80
2022/05/18 04:58:52;;;;;;;3.03;1.85;;;;;;;;;;5026372;28;20384;-80
2022/05/18 05:01:18;;;;;;;3.10;1.73;;;;;;;;;;5017605;28;20423;-80
2022/05/18 05:03:44;;;;;;;2.97;1.88;;;;;;;;;;5001700;28;20079;-80
2022/05/18 05:06:10;;;;;;;4.40;1.98;;;;;;;;;;5001212;28;20072;-81
2022/05/18 05:08:35;;;;;;;4.60;1.73;;;;;;;;;;5017265;28;20052;-81
2022/05/18 05:11:01;;;;;;;5.07;1.85;;;;;;;;;;5000722;28;20075;-80
2022/05/18 05:13:26;;;;;;;4.55;1.67;;;;;;;;;;5017354;28;20120;-80
2022/05/18 05:16:02;;;;;;;5.18;2.10;;;;;;;;;;5001402;28;20078;-81
2022/05/18 05:18:28;;;;;;;4.22;2.00;;;;;;;;;;5017201;28;20086;-81
2022/05/18 05:20:53;;;;;;;6.07;1.77;;;;;;;;;;5001104;28;20566;-81
2022/05/18 05:23:20;;;;;;;3.72;1.88;;;;;;;;;;5001028;28;20033;-81
2022/05/18 05:25:46;;;;;;;5.63;1.55;;;;;;;;;;5017721;28;20120;-82
2022/05/18 05:28:12;;;;;;;2.75;1.90;;;;;;;;;;4999687;28;20037;-82
2022/05/18 05:30:37;;;;;;;2.78;1.45;;;;;;;;;;5001305;28;20045;-82
2022/05/18 05:33:04;;;;;;;4.97;2.13;;;;;;;;;;5017119;28;20048;-82
2022/05/18 05:35:29;;;;;;;3.08;1.73;;;;;;;;;;5017092;28;20045;-81
2022/05/18 05:37:56;;;;;;;4.80;1.92;;;;;;;;;;5000885;28;20032;-83
2022/05/18 05:40:22;;;;;;;6.00;2.13;;;;;;;;;;5004556;28;20462;-82
2022/05/18 05:42:48;;;;;;;8.32;2.78;;;;;;;;;;4981630;28;20041;-82
2022/05/18 05:45:14;;;;;;;7.57;2.63;;;;;;;;;;4974410;28;20412;-83
2022/05/18 05:47:39;;;;;;;5.75;2.72;;;;;;;;;;4981169;28;20026;-83
2022/05/18 05:50:05;;;;;;;4.25;2.17;;;;;;;;;;4997204;28;20099;-83
2022/05/18 05:52:31;;;;;;;5.97;2.60;;;;;;;;;;4989447;28;20033;-83
2022/05/18 05:54:56;;;;;;;7.55;2.50;;;;;;;;;;5006191;28;20056;-83
2022/05/18 05:57:22;;;;;;;4.32;2.65;;;;;;;;;;5020434;28;20029;-83
2022/05/18 05:59:47;;;;;;;7.15;2.67;;;;;;;;;;5018531;28;20045;-83
2022/05/18 06:02:15;;;;;;;4.50;2.97;;;;;;;;;;5017036;28;20040;-83
2022/05/18 06:04:41;;;;;;;3.55;2.38;;;;;;;;;;5017520;28;20534;-84
2022/05/18 06:07:06;;;;;;;8.73;2.33;;;;;;;;;;5000848;28;20163;-83
2022/05/18 06:09:32;;;;;;;5.65;2.60;;;;;;;;;;5001129;28;20040;-83
2022/05/18 06:11:57;;;;;;;7.63;3.25;;;;;;;;;;5004346;28;20052;-81
2022/05/18 06:14:23;;;;;;;24.90;4.47;;;;;;;;;;5004206;28;20041;-86
2022/05/18 06:16:48;;;;;;;12.10;3.05;;;;;;;;;;5004702;28;20075;-85
2022/05/18 06:19:15;;;;;;;24.85;5.65;;;;;;;;;;4971321;28;20041;-86
2022/05/18 06:21:40;;;;;;;18.00;6.57;;;;;;;;;;5018367;28;20033;-86
2022/05/18 06:24:06;;;;;;;14.30;7.88;;;;;;;;;;5036604;28;20044;-83
2022/05/18 06:26:34;;;;;;;19.02;7.50;;;;;;;;;;5004288;28;20428;-84
2022/05/18 06:28:59;;;;;;;10.85;4.57;;;;;;;;;;5021160;28;20041;-85
2022/05/18 06:31:27;;;;;;;5.72;3.33;;;;;;;;;;5019903;28;20075;-85
2022/05/18 06:33:52;;;;;;;8.98;3.33;;;;;;;;;;5020391;28;20033;-84
2022/05/18 06:36:18;;;;;;;5.72;2.67;;;;;;;;;;5020669;28;20025;-84
2022/05/18 06:38:44;;;;;;;5.45;2.60;;;;;;;;;;5020484;28;20066;-84
2022/05/18 06:41:21;;;;;;;6.53;2.35;;;;;;;;;;5016974;28;20034;-85
2022/05/18 06:43:58;;;;;;;4.18;2.47;;;;;;;;;;5016771;28;20052;-83
2022/05/18 06:46:24;;;;;;;5.72;2.35;;;;;;;;;;5017253;28;20033;-83
2022/05/18 06:48:50;;;;;;;5.60;1.90;;;;;;;;;;5000918;28;20041;-84
2022/05/18 06:51:20;;;;;;;5.55;1.92;;;;;;;;;;5019819;28;20037;-83
2022/05/18 06:53:51;;;;;;;6.55;2.47;;;;;;;;;;5020819;28;20040;-85
2022/05/18 06:56:23;;;;;;;4.15;1.90;;;;;;;;;;5028737;28;20542;-84
2022/05/18 06:58:49;;;;;;;4.95;2.03;;;;;;;;;;5020486;28;20057;-84
2022/05/18 07:01:15;;;;;;;4.38;1.67;;;;;;;;;;5020088;28;20120;-83
2022/05/18 07:03:43;;;;;;;2.28;1.48;;;;;;;;;;5003816;28;20499;-83
2022/05/18 07:06:09;;;;;;;4.18;1.90;;;;;;;;;;5003494;28;20077;-84
2022/05/18 07:08:35;;;;;;;3.53;1.88;;;;;;;;;;5003317;28;20123;-83
2022/05/18 07:11:00;;;;;;;2.55;1.40;;;;;;;;;;5019247;28;20033;-83
2022/05/18 07:13:26;;;;;;;3.45;2.10;;;;;;;;;;5003173;28;20124;-83
2022/05/18 07:15:51;;;;;;;2.25;1.63;;;;;;;;;;5019508;28;20495;-83
2022/05/18 07:18:17;;;;;;;3.72;1.45;;;;;;;;;;5035896;28;20044;-84
2022/05/18 07:20:43;;;;;;;4.88;2.58;;;;;;;;;;5002989;28;20051;-84
2022/05/18 07:23:09;;;;;;;13.68;9.27;;;;;;;;;;5003147;28;20025;-83
2022/05/18 07:25:34;;;;;;;34.03;24.38;;;;;;;;;;5018220;28;20462;-83
2022/05/18 07:28:00;;;;;;;45.80;31.20;;;;;;;;;;5002097;28;20049;-83
2022/05/18 07:30:25;;;;;;;36.85;25.58;;;;;;;;;;5019488;28;20033;-83
2022/05/18 07:32:51;;;;;;;24.95;15.45;;;;;;;;;;5035754;28;20124;-84
2022/05/18 07:35:16;;;;;;;14.45;9.57;;;;;;;;;;5035543;28;20415;-83
2022/05/18 07:37:43;;;;;;;11.45;7.85;;;;;;;;;;5019064;28;20049;-83
2022/05/18 07:40:08;;;;;;;10.40;5.05;;;;;;;;;;4999375;28;20038;-84
2022/05/18 07:42:34;;;;;;;8.00;3.45;;;;;;;;;;4983339;28;20025;-83
2022/05/18 07:45:00;;;;;;;6.88;2.60;;;;;;;;;;4999866;28;20087;-83
2022/05/18 07:47:30;;;;;;;6.32;1.92;;;;;;;;;;4999458;28;20033;-83
2022/05/18 07:49:55;;;;;;;5.38;1.83;;;;;;;;;;5001902;28;20526;-83
2022/05/18 07:52:21;;;;;;;3.95;2.08;;;;;;;;;;4986339;28;20025;-83
2022/05/18 07:54:47;;;;;;;7.38;2.40;;;;;;;;;;5037609;28;20045;-83
2022/05/18 07:57:13;;;;;;;3.60;1.77;;;;;;;;;;5022779;28;20067;-83
2022/05/18 07:59:38;;;;;;;3.38;1.52;;;;;;;;;;5022070;28;20078;-83
2022/05/18 08:02:04;;;;;;;3.80;1.65;;;;;;;;;;5018814;28;20041;-84
2022/05/18 08:04:29;;;;;;;5.43;1.48;;;;;;;;;;5018329;28;20059;-83
2022/05/18 08:06:55;;;;;;;3.22;1.70;;;;;;;;;;5018937;28;20052;-83
2022/05/18 08:09:22;;;;;;;5.18;1.42;;;;;;;;;;5018304;28;20395;-83
2022/05/18 08:17:22;;;;;;;6.22;2.30;;;;;;;;;;5018935;28;20083;-82
2022/05/18 08:19:47;;;;;;;5.72;1.67;;;;;;;;;;5000859;28;20051;-83
2022/05/18 08:22:13;;;;;;;8.35;2.45;;;;;;;;;;5017940;28;20037;-84
2022/05/18 08:24:39;;;;;;;5.47;1.85;;;;;;;;;;5002108;28;20068;-83
2022/05/18 08:27:05;;;;;;;4.20;1.88;;;;;;;;;;5001856;28;20116;-83
2022/05/18 08:29:31;;;;;;;5.00;2.20;;;;;;;;;;5018602;28;20044;-83
2022/05/18 08:31:56;;;;;;;4.10;2.00;;;;;;;;;;5017986;28;20123;-82
2022/05/18 08:34:22;;;;;;;7.80;2.15;;;;;;;;;;5017834;28;20114;-83
2022/05/18 08:36:49;;;;;;;4.93;1.75;;;;;;;;;;5018268;28;20063;-84
2022/05/18 08:39:14;;;;;;;4.30;2.17;;;;;;;;;;5001839;28;20102;-83
2022/05/18 08:41:45;;;;;;;8.80;2.28;;;;;;;;;;5034358;28;20495;-84
2022/05/18 08:44:31;;;;;;;8.43;3.40;;;;;;;;;;5017474;28;20123;-83
2022/05/18 08:47:05;;;;;;;7.10;3.72;;;;;;;;;;5017724;28;20076;-84
2022/05/18 08:49:58;;;;;;;5.07;3.58;;;;;;;;;;5017855;28;20041;-84
2022/05/18 08:52:33;;;;;;;7.75;4.20;;;;;;;;;;4995357;28;20041;-83
2022/05/18 08:55:20;;;;;;;8.27;2.90;;;;;;;;;;5010011;28;20029;-83
2022/05/18 08:57:46;;;;;;;5.63;2.30;;;;;;;;;;5037347;28;20040;-83
2022/05/18 09:00:39;;;;;;;3.40;2.13;;;;;;;;;;5020870;28;20032;-83
2022/05/18 09:03:15;;;;;;;4.32;2.00;;;;;;;;;;5032694;28;20037;-83
2022/05/18 09:06:07;;;;;;;4.60;1.60;;;;;;;;;;5037500;28;20032;-83
2022/05/18 09:08:35;;;;;;;4.20;1.83;;;;;;;;;;5036961;28;20110;-83
2022/05/18 09:11:09;;;;;;;5.63;2.05;;;;;;;;;;5020719;28;20036;-83
2022/05/18 09:13:34;;;;;;;9.20;2.22;;;;;;;;;;5004236;28;20033;-83
2022/05/18 09:16:09;;;;;;;3.20;1.70;;;;;;;;;;5020859;28;20036;-83
2022/05/18 09:18:43;;;;;;;4.18;2.38;;;;;;;;;;5037274;28;20056;-83
2022/05/18 09:21:18;;;;;;;6.65;2.17;;;;;;;;;;5005701;28;20079;-83
2022/05/18 09:23:55;;;;;;;3.17;1.73;;;;;;;;;;5000799;28;20033;-83
2022/05/18 09:26:22;;;;;;;6.63;2.33;;;;;;;;;;5017567;28;20067;-84
2022/05/18 09:29:09;;;;;;;6.63;2.20;;;;;;;;;;5017100;28;20037;-85
2022/05/18 09:31:44;;;;;;;3.95;2.30;;;;;;;;;;5017006;28;20503;-84
2022/05/18 09:34:36;;;;;;;7.68;2.28;;;;;;;;;;5017195;28;20037;-83
2022/05/18 09:37:16;;;;;;;7.15;2.33;;;;;;;;;;5017229;28;20025;-83
2022/05/18 09:39:45;;;;;;;7.50;2.92;;;;;;;;;;5000639;28;20049;-84
2022/05/18 09:42:14;;;;;;;5.38;2.40;;;;;;;;;;5000711;28;20565;-82
2022/05/18 09:44:50;;;;;;;8.88;2.30;;;;;;;;;;5017892;28;20053;-82
2022/05/18 09:47:18;;;;;;;5.65;2.28;;;;;;;;;;5037455;28;20470;-82
2022/05/18 09:49:50;;;;;;;12.40;3.58;;;;;;;;;;5004754;28;20037;-82
2022/05/18 09:52:20;;;;;;;13.85;5.75;;;;;;;;;;5020753;28;20021;-82
2022/05/18 09:54:45;;;;;;;12.60;5.18;;;;;;;;;;5020228;28;20025;-82
2022/05/18 09:57:35;;;;;;;7.82;3.70;;;;;;;;;;5008001;28;20082;-82
2022/05/18 10:00:04;;;;;;;9.40;3.47;;;;;;;;;;5006864;28;20120;-81
2022/05/18 10:08:00;;;;;;;7.32;2.35;;;;;;;;;;5023124;28;20060;-82
2022/05/18 10:10:29;;;;;;;6.30;2.55;;;;;;;;;;5020693;28;20071;-82
2022/05/18 10:12:54;;;;;;;5.78;2.35;;;;;;;;;;5020859;28;20095;-81
2022/05/18 10:15:25;;;;;;;5.75;2.00;;;;;;;;;;5020334;28;20036;-82
2022/05/18 10:18:00;;;;;;;4.00;2.50;;;;;;;;;;5022956;28;20098;-81
2022/05/18 10:20:33;;;;;;;4.88;2.40;;;;;;;;;;5019987;28;20061;-81
2022/05/18 10:22:59;;;;;;;5.05;1.95;;;;;;;;;;4986148;28;20025;-81
2022/05/18 10:25:47;;;;;;;3.90;2.47;;;;;;;;;;5003392;28;20369;-81
2022/05/18 10:28:21;;;;;;;4.32;2.20;;;;;;;;;;5019493;28;20036;-81
2022/05/18 10:31:01;;;;;;;9.60;2.80;;;;;;;;;;5003714;28;20025;-82
2022/05/18 10:33:33;;;;;;;5.10;2.22;;;;;;;;;;5004107;28;20033;-82
2022/05/18 10:36:11;;;;;;;9.10;2.63;;;;;;;;;;5020891;28;20029;-81
2022/05/18 10:38:37;;;;;;;4.88;2.20;;;;;;;;;;5019980;28;20033;-81
2022/05/18 10:41:02;;;;;;;7.63;2.40;;;;;;;;;;5003672;28;20098;-80
2022/05/18 10:43:39;;;;;;;12.27;3.38;;;;;;;;;;5054311;28;20037;-80
2022/05/18 10:46:18;;;;;;;7.45;2.42;;;;;;;;;;5019994;28;20028;-81
2022/05/18 10:49:02;;;;;;;8.80;2.85;;;;;;;;;;5020416;28;20033;-84
2022/05/18 10:51:28;;;;;;;8.50;2.53;;;;;;;;;;5018611;28;20037;-83
2022/05/18 10:53:55;;;;;;;6.03;2.75;;;;;;;;;;4986157;28;20029;-82
2022/05/18 10:56:28;;;;;;;6.25;2.30;;;;;;;;;;5034458;28;20065;-83
2022/05/18 10:59:16;;;;;;;6.90;2.55;;;;;;;;;;5012345;28;20036;-83
2022/05/18 11:01:48;;;;;;;8.93;7.10;;;;;;;;;;5036630;28;20065;-84
2022/05/18 11:04:14;;;;;;;;;;;;;;;;;;5053386;28;20033;-84
2022/05/18 11:06:41;;;;;;;32.45;11.45;;;;;;;;;;5019954;28;19912;-83
2022/05/18 11:09:17;;;;;;;12.48;5.72;;;;;;;;;;5003537;28;20037;-86
2022/05/18 11:11:47;;;;;;;13.43;6.00;;;;;;;;;;5003843;28;20483;-86
2022/05/18 11:14:16;;;;;;;17.02;4.93;;;;;;;;;;5019379;28;20044;-85
2022/05/18 11:17:02;;;;;;;7.78;4.53;;;;;;;;;;5036595;28;20036;-85
2022/05/18 11:19:37;;;;;;;9.05;4.63;;;;;;;;;;5019304;28;20083;-85
2022/05/18 11:22:14;;;;;;;10.15;3.90;;;;;;;;;;5019578;28;20419;-84
2022/05/18 11:24:55;;;;;;;7.82;3.65;;;;;;;;;;5016551;28;20103;-85
2022/05/18 11:27:32;;;;;;;6.28;2.92;;;;;;;;;;5015619;28;20056;-85
2022/05/18 11:30:17;;;;;;;7.05;3.70;;;;;;;;;;4985213;28;20396;-85
2022/05/18 11:33:01;;;;;;;8.05;3.13;;;;;;;;;;5013251;28;20036;-84
2022/05/18 11:35:48;;;;;;;6.75;2.97;;;;;;;;;;5019502;28;20435;-85
2022/05/18 11:38:20;;;;;;;6.82;2.72;;;;;;;;;;5004815;28;20487;-85
2022/05/18 11:41:04;;;;;;;;;;;;;;;;;;5036616;28;20037;-86
2022/05/18 11:43:37;;;;;;;4.95;2.50;;;;;;;;;;5019245;28;19971;-85
2022/05/18 11:46:14;;;;;;;9.15;2.33;;;;;;;;;;5003038;28;20037;-83
2022/05/18 11:48:52;;;;;;;10.25;2.58;;;;;;;;;;5019154;28;20395;-83
2022/05/18 11:51:39;;;;;;;9.20;2.47;;;;;;;;;;5018852;28;20063;-83
2022/05/18 11:54:39;;;;;;;5.18;2.45;;;;;;;;;;5002735;28;20036;-83
2022/05/18 11:57:32;;;;;;;4.45;2.22;;;;;;;;;;5029786;28;20038;-83
2022/05/18 12:00:07;;;;;;;9.02;2.28;;;;;;;;;;5018201;28;20075;-83
2022/05/18 12:03:01;;;;;;;6.10;2.22;;;;;;;;;;5018800;28;20037;-83
2022/05/18 12:05:35;;;;;;;8.20;3.17;;;;;;;;;;5035444;28;20029;-83
2022/05/18 12:08:14;;;;;;;6.47;3.75;;;;;;;;;;5017858;28;20403;-84
2022/05/18 12:10:42;;;;;;;6.82;3.40;;;;;;;;;;5035010;28;20031;-84
2022/05/18 12:13:27;;;;;;;7.18;3.50;;;;;;;;;;5002148;28;20045;-84
2022/05/18 12:16:31;;;;;;;9.23;2.90;;;;;;;;;;5017726;28;20461;-85
2022/05/18 12:19:22;;;;;;;5.18;2.75;;;;;;;;;;4954368;28;20041;-84
2022/05/18 12:21:50;;;;;;;5.38;2.42;;;;;;;;;;5051315;28;20086;-85
2022/05/18 12:24:16;;;;;;;5.93;2.67;;;;;;;;;;4999013;28;20028;-84
2022/05/18 12:26:43;;;;;;;7.43;2.55;;;;;;;;;;5015060;28;20045;-84
2022/05/18 12:29:09;;;;;;;3.53;2.17;;;;;;;;;;5015094;28;20037;-84
2022/05/18 12:31:35;;;;;;;6.22;2.53;;;;;;;;;;5034240;28;20037;-85
2022/05/18 12:34:15;;;;;;;3.58;2.33;;;;;;;;;;5002164;28;20119;-84
2022/05/18 12:36:43;;;;;;;5.40;2.45;;;;;;;;;;5034886;28;20048;-84
2022/05/18 12:39:32;;;;;;;3.88;2.03;;;;;;;;;;5001739;28;20033;-84
2022/05/18 12:41:59;;;;;;;4.22;2.60;;;;;;;;;;5017800;28;20068;-84
2022/05/18 12:44:40;;;;;;;4.97;2.22;;;;;;;;;;5034718;28;20052;-85
2022/05/18 12:47:27;;;;;;;5.53;2.75;;;;;;;;;;5018852;28;20127;-84
2022/05/18 12:50:07;;;;;;;6.47;2.35;;;;;;;;;;5018273;28;20032;-84
2022/05/18 12:52:55;;;;;;;6.10;2.50;;;;;;;;;;5002012;28;20029;-84
2022/05/18 12:56:00;;;;;;;4.03;2.47;;;;;;;;;;5034356;28;20073;-85
2022/05/18 12:58:30;;;;;;;3.92;2.25;;;;;;;;;;4939292;28;20166;-84
2022/05/18 13:01:15;;;;;;;5.03;2.35;;;;;;;;;;4939710;28;20031;-85
2022/05/18 13:03:42;;;;;;;3.92;2.05;;;;;;;;;;4972242;28;20052;-85
2022/05/18 13:06:46;;;;;;;4.60;2.55;;;;;;;;;;5018289;28;20033;-85
2022/05/18 13:09:36;;;;;;;5.85;2.28;;;;;;;;;;5008879;28;20524;-85
2022/05/18 13:12:17;;;;;;;5.68;2.78;;;;;;;;;;5034433;28;20036;-85
2022/05/18 13:15:00;;;;;;;6.22;2.42;;;;;;;;;;5033887;28;20071;-85
2022/05/18 13:17:51;;;;;;;4.70;2.47;;;;;;;;;;5017555;28;20094;-85
2022/05/18 13:20:26;;;;;;;6.32;2.88;;;;;;;;;;5018035;28;20135;-87
2022/05/18 13:23:31;;;;;;;3.25;1.67;;;;;;;;;;5018179;28;20120;-87
2022/05/18 13:26:06;;;;;;;5.90;2.90;;;;;;;;;;5007316;28;20045;-85
2022/05/18 13:28:33;;;;;;;5.10;2.00;;;;;;;;;;4983728;28;20130;-88
2022/05/18 13:31:00;;;;;;;5.28;2.40;;;;;;;;;;4999549;28;20098;-85
2022/05/18 13:33:29;;;;;;;4.90;2.13;;;;;;;;;;4998971;28;20034;-86
2022/05/18 13:35:55;;;;;;;5.60;2.10;;;;;;;;;;4998883;28;20480;-88
2022/05/18 13:38:25;;;;;;;5.80;2.42;;;;;;;;;;5015378;28;20029;-88
2022/05/18 13:40:55;;;;;;;27.88;4.70;;;;;;;;;;5004403;28;20041;-86
2022/05/18 13:43:22;;;;;;;21.13;3.72;;;;;;;;;;5014750;28;20046;-87
2022/05/18 13:45:53;;;;;;;11.68;2.85;;;;;;;;;;4982577;28;20033;-87
2022/05/18 13:48:20;;;;;;;6.05;1.92;;;;;;;;;;4997604;28;20044;-86
2022/05/18 13:50:50;;;;;;;8.60;3.35;;;;;;;;;;4981824;28;20046;-85
2022/05/18 13:53:21;;;;;;;5.80;2.35;;;;;;;;;;4997329;28;20041;-87
2022/05/18 13:55:47;;;;;;;5.88;1.90;;;;;;;;;;4981560;28;20554;-86
2022/05/18 13:58:16;;;;;;;5.53;2.15;;;;;;;;;;4986822;28;20029;-86
2022/05/18 14:00:54;;;;;;;7.80;2.00;;;;;;;;;;5016972;28;20029;-83
2022/05/18 14:03:21;;;;;;;9.07;2.63;;;;;;;;;;5001504;28;20029;-84
2022/05/18 14:05:47;;;;;;;6.28;2.20;;;;;;;;;;5000065;28;20037;-84
2022/05/18 14:08:36;;;;;;;6.47;2.08;;;;;;;;;;4999114;28;20131;-84
2022/05/18 14:11:03;;;;;;;4.10;2.13;;;;;;;;;;5016712;28;20530;-83
2022/05/18 14:13:29;;;;;;;5.75;2.05;;;;;;;;;;5000619;28;20037;-84
2022/05/18 14:15:56;;;;;;;6.20;2.00;;;;;;;;;;5016765;28;20090;-83
2022/05/18 14:18:26;;;;;;;7.43;1.75;;;;;;;;;;5017088;28;20116;-83
2022/05/18 14:20:53;;;;;;;8.90;4.55;;;;;;;;;;4999863;28;20033;-84
2022/05/18 14:23:24;;;;;;;6.38;3.60;;;;;;;;;;5000418;28;20041;-84
2022/05/18 14:25:54;;;;;;;8.80;4.57;;;;;;;;;;4987520;28;20118;-84
2022/05/18 14:28:31;;;;;;;10.73;5.30;;;;;;;;;;5016774;28;20036;-83
2022/05/18 14:30:58;;;;;;;6.30;3.85;;;;;;;;;;5002149;28;20053;-83
2022/05/18 14:34:02;;;;;;;9.82;5.43;;;;;;;;;;5016122;28;20037;-82
2022/05/18 14:36:37;;;;;;;7.53;3.85;;;;;;;;;;4957086;28;20038;-82
2022/05/18 14:39:05;;;;;;;8.02;4.30;;;;;;;;;;4976546;28;20048;-83
2022/05/18 14:41:40;;;;;;;7.45;4.07;;;;;;;;;;4993161;28;20071;-82
2022/05/18 14:44:06;;;;;;;7.40;3.13;;;;;;;;;;5020019;28;20503;-82
2022/05/18 14:46:34;;;;;;;5.43;2.95;;;;;;;;;;5003659;28;20041;-82
2022/05/18 14:49:05;;;;;;;4.30;2.22;;;;;;;;;;5003951;28;20033;-82
2022/05/18 14:51:40;;;;;;;5.85;2.15;;;;;;;;;;5003378;28;20033;-82
2022/05/18 14:54:13;;;;;;;4.85;2.10;;;;;;;;;;5036429;28;20029;-82
2022/05/18 14:56:40;;;;;;;6.13;2.40;;;;;;;;;;5007666;28;20084;-81
2022/05/18 14:59:08;;;;;;;5.60;1.98;;;;;;;;;;5017460;28;20034;-80
2022/05/18 15:01:53;;;;;;;4.00;1.75;;;;;;;;;;5000491;28;20044;-80
2022/05/18 15:04:36;;;;;;;4.60;1.95;;;;;;;;;;5016404;28;20025;-81
2022/05/18 15:07:08;;;;;;;5.05;1.83;;;;;;;;;;5016606;28;20037;-81
2022/05/18 15:09:53;;;;;;;;;;;;;;;;;;5017199;28;20038;-81
2022/05/18 15:12:41;;;;;;;5.30;1.90;;;;;;;;;;5015935;28;19917;-81
2022/05/18 15:15:18;;;;;;;3.95;1.77;;;;;;;;;;5016230;28;20072;-81
2022/05/18 15:17:47;;;;;;;6.10;2.22;;;;;;;;;;4999900;28;20518;-81
2022/05/18 15:20:37;;;;;;;6.15;2.17;;;;;;;;;;4999742;28;20034;-81